📊 Raw Sensor Data

Showing records 51326 to 51350 of 85,147 total

ID Distance (ft) Battery V Battery A Int Temp (°F) Int Humid (%) Ext Temp (°F) Solar V RSSI SNR Time Stamp
33834 14.9 3.96 -5 46 38 47 0.00 -72 8 03/02/2025 05:45 AM
33833 14.8 3.90 -5 46 38 47 0.10 -73 8 03/02/2025 05:30 AM
33832 14.8 3.96 -5 46 38 47 0.00 -72 8 03/02/2025 05:15 AM
33831 14.8 3.91 -5 46 38 47 0.10 -75 8 03/02/2025 05:00 AM
33830 14.8 3.96 -5 47 38 48 0.00 -74 8 03/02/2025 04:45 AM
33829 14.8 3.91 -5 46 38 48 0.00 -74 8 03/02/2025 04:30 AM
33828 14.8 3.96 -5 46 38 48 0.00 -73 8 03/02/2025 04:15 AM
33827 14.8 3.91 -5 46 38 48 0.00 -74 7 03/02/2025 04:00 AM
33826 14.8 3.97 -5 47 38 48 0.00 -73 8 03/02/2025 03:45 AM
33825 14.8 3.91 -5 47 38 48 0.00 -72 8 03/02/2025 03:30 AM
33824 14.8 3.91 -5 47 38 49 0.00 -72 7 03/02/2025 03:15 AM
33823 14.8 3.97 -5 47 38 49 0.10 -71 8 03/02/2025 03:00 AM
33822 14.8 3.91 -5 47 38 49 0.10 -72 8 03/02/2025 02:45 AM
33821 14.8 3.97 -5 47 38 49 0.00 -73 8 03/02/2025 02:30 AM
33820 14.8 3.91 -5 47 38 49 0.10 -74 8 03/02/2025 02:15 AM
33819 14.8 3.97 -5 47 38 48 0.00 -73 8 03/02/2025 02:00 AM
33818 14.8 3.91 -5 47 39 48 0.00 -73 8 03/02/2025 01:45 AM
33817 14.8 3.97 -5 48 39 49 0.10 -72 7 03/02/2025 01:30 AM
33816 14.8 3.92 -5 48 39 49 0.00 -75 8 03/02/2025 01:15 AM
33815 14.8 3.97 -5 48 39 49 0.10 -71 8 03/02/2025 01:00 AM
33814 14.8 3.92 -5 49 39 50 0.00 -73 8 03/02/2025 12:45 AM
33813 14.8 3.97 -5 49 39 50 0.00 -73 8 03/02/2025 12:30 AM
33812 14.8 3.92 -5 50 39 51 0.10 -73 8 03/02/2025 12:15 AM
33811 14.8 3.92 -5 50 39 51 0.10 -73 8 03/02/2025 12:00 AM
33810 14.8 3.92 -5 51 39 51 0.00 -72 8 03/01/2025 11:45 PM